sensor_id;sensor_type;location;lat;lon;timestamp;temperature;humidity
63313;DHT22;49442;45.640;13.812;2023-01-09T00:00:17;10.60;99.90
63313;DHT22;49442;45.640;13.812;2023-01-09T00:02:43;10.60;99.90
63313;DHT22;49442;45.640;13.812;2023-01-09T00:05:09;10.50;99.90
63313;DHT22;49442;45.640;13.812;2023-01-09T00:07:35;10.50;99.90
63313;DHT22;49442;45.640;13.812;2023-01-09T00:10:00;10.50;99.90
63313;DHT22;49442;45.640;13.812;2023-01-09T00:12:26;10.50;99.90
63313;DHT22;49442;45.640;13.812;2023-01-09T00:14:52;10.50;99.90
63313;DHT22;49442;45.640;13.812;2023-01-09T00:17:17;10.50;99.90
63313;DHT22;49442;45.640;13.812;2023-01-09T00:19:43;10.50;99.90
63313;DHT22;49442;45.640;13.812;2023-01-09T00:22:08;10.50;99.90
63313;DHT22;49442;45.640;13.812;2023-01-09T00:24:37;10.50;99.90
63313;DHT22;49442;45.640;13.812;2023-01-09T00:27:03;10.50;99.90
63313;DHT22;49442;45.640;13.812;2023-01-09T00:29:29;10.50;99.90
63313;DHT22;49442;45.640;13.812;2023-01-09T00:31:54;10.50;99.90
63313;DHT22;49442;45.640;13.812;2023-01-09T00:34:20;10.50;99.90
63313;DHT22;49442;45.640;13.812;2023-01-09T00:36:45;10.40;99.90
63313;DHT22;49442;45.640;13.812;2023-01-09T00:39:11;10.50;99.90
63313;DHT22;49442;45.640;13.812;2023-01-09T00:41:47;10.50;99.90
63313;DHT22;49442;45.640;13.812;2023-01-09T00:44:14;10.40;99.90
63313;DHT22;49442;45.640;13.812;2023-01-09T00:46:52;10.40;99.90
63313;DHT22;49442;45.640;13.812;2023-01-09T00:49:19;10.40;99.90
63313;DHT22;49442;45.640;13.812;2023-01-09T00:51:44;10.40;99.90
63313;DHT22;49442;45.640;13.812;2023-01-09T00:54:10;10.40;99.90
63313;DHT22;49442;45.640;13.812;2023-01-09T00:56:38;10.40;99.90
63313;DHT22;49442;45.640;13.812;2023-01-09T00:59:03;10.40;99.90
63313;DHT22;49442;45.640;13.812;2023-01-09T01:01:29;10.40;99.90
63313;DHT22;49442;45.640;13.812;2023-01-09T01:03:55;10.40;99.90
63313;DHT22;49442;45.640;13.812;2023-01-09T01:06:20;10.30;99.90
63313;DHT22;49442;45.640;13.812;2023-01-09T01:09:05;10.30;99.90
63313;DHT22;49442;45.640;13.812;2023-01-09T01:11:31;10.30;99.90
63313;DHT22;49442;45.640;13.812;2023-01-09T01:13:57;10.20;99.90
63313;DHT22;49442;45.640;13.812;2023-01-09T01:16:22;10.20;99.90
63313;DHT22;49442;45.640;13.812;2023-01-09T01:18:48;10.30;99.90
63313;DHT22;49442;45.640;13.812;2023-01-09T01:21:14;10.20;99.90
63313;DHT22;49442;45.640;13.812;2023-01-09T01:23:40;10.20;99.90
63313;DHT22;49442;45.640;13.812;2023-01-09T01:26:07;10.20;99.90
63313;DHT22;49442;45.640;13.812;2023-01-09T01:28:33;10.20;99.90
63313;DHT22;49442;45.640;13.812;2023-01-09T01:30:59;10.20;99.90
63313;DHT22;49442;45.640;13.812;2023-01-09T01:33:24;10.20;99.90
63313;DHT22;49442;45.640;13.812;2023-01-09T01:35:50;10.20;99.90
63313;DHT22;49442;45.640;13.812;2023-01-09T01:38:15;10.20;99.90
63313;DHT22;49442;45.640;13.812;2023-01-09T01:40:41;10.20;99.90
63313;DHT22;49442;45.640;13.812;2023-01-09T01:43:08;10.20;99.90
63313;DHT22;49442;45.640;13.812;2023-01-09T01:45:36;10.20;99.90
63313;DHT22;49442;45.640;13.812;2023-01-09T01:48:14;10.20;99.90
63313;DHT22;49442;45.640;13.812;2023-01-09T01:50:45;10.10;99.90
63313;DHT22;49442;45.640;13.812;2023-01-09T01:58:49;10.00;99.90
63313;DHT22;49442;45.640;13.812;2023-01-09T02:01:16;9.90;99.90
63313;DHT22;49442;45.640;13.812;2023-01-09T02:03:42;9.90;99.90
63313;DHT22;49442;45.640;13.812;2023-01-09T02:06:08;9.90;99.90
63313;DHT22;49442;45.640;13.812;2023-01-09T02:08:35;9.90;99.90
63313;DHT22;49442;45.640;13.812;2023-01-09T02:11:02;9.90;99.90
63313;DHT22;49442;45.640;13.812;2023-01-09T02:13:28;9.90;99.90
63313;DHT22;49442;45.640;13.812;2023-01-09T02:19:03;10.00;99.90
63313;DHT22;49442;45.640;13.812;2023-01-09T02:34:52;9.90;99.90
63313;DHT22;49442;45.640;13.812;2023-01-09T02:37:35;9.90;99.90
63313;DHT22;49442;45.640;13.812;2023-01-09T02:40:22;9.80;99.90
63313;DHT22;49442;45.640;13.812;2023-01-09T02:42:49;9.90;99.90
63313;DHT22;49442;45.640;13.812;2023-01-09T02:45:16;9.90;99.90
63313;DHT22;49442;45.640;13.812;2023-01-09T02:47:44;9.90;99.90
63313;DHT22;49442;45.640;13.812;2023-01-09T02:50:15;9.90;99.90
63313;DHT22;49442;45.640;13.812;2023-01-09T03:06:27;10.00;99.90
63313;DHT22;49442;45.640;13.812;2023-01-09T03:08:58;10.00;99.90
63313;DHT22;49442;45.640;13.812;2023-01-09T03:11:29;10.00;99.90
63313;DHT22;49442;45.640;13.812;2023-01-09T03:14:03;10.00;99.90
63313;DHT22;49442;45.640;13.812;2023-01-09T03:16:32;10.10;99.90
63313;DHT22;49442;45.640;13.812;2023-01-09T03:19:00;10.10;99.90
63313;DHT22;49442;45.640;13.812;2023-01-09T03:21:28;10.10;99.90
63313;DHT22;49442;45.640;13.812;2023-01-09T03:23:57;10.00;99.90
63313;DHT22;49442;45.640;13.812;2023-01-09T03:26:24;10.00;99.90
63313;DHT22;49442;45.640;13.812;2023-01-09T03:28:50;10.10;99.90
63313;DHT22;49442;45.640;13.812;2023-01-09T03:31:16;10.10;99.90
63313;DHT22;49442;45.640;13.812;2023-01-09T03:33:42;10.10;99.90
63313;DHT22;49442;45.640;13.812;2023-01-09T03:36:09;10.10;99.90
63313;DHT22;49442;45.640;13.812;2023-01-09T03:38:35;10.10;99.90
63313;DHT22;49442;45.640;13.812;2023-01-09T03:41:01;10.10;99.90
63313;DHT22;49442;45.640;13.812;2023-01-09T03:43:27;10.10;99.90
63313;DHT22;49442;45.640;13.812;2023-01-09T03:45:53;10.10;99.90
63313;DHT22;49442;45.640;13.812;2023-01-09T03:48:19;10.10;99.90
63313;DHT22;49442;45.640;13.812;2023-01-09T03:50:53;10.10;99.90
63313;DHT22;49442;45.640;13.812;2023-01-09T03:53:20;10.10;99.90
63313;DHT22;49442;45.640;13.812;2023-01-09T03:55:48;10.20;99.90
63313;DHT22;49442;45.640;13.812;2023-01-09T03:58:15;10.20;99.90
63313;DHT22;49442;45.640;13.812;2023-01-09T04:00:42;10.30;99.90
63313;DHT22;49442;45.640;13.812;2023-01-09T04:03:10;10.20;99.90
63313;DHT22;49442;45.640;13.812;2023-01-09T04:05:36;10.30;99.90
63313;DHT22;49442;45.640;13.812;2023-01-09T04:08:02;10.40;99.90
63313;DHT22;49442;45.640;13.812;2023-01-09T04:10:27;10.40;99.90
63313;DHT22;49442;45.640;13.812;2023-01-09T04:12:53;10.50;99.90
63313;DHT22;49442;45.640;13.812;2023-01-09T04:15:19;10.50;99.90
63313;DHT22;49442;45.640;13.812;2023-01-09T04:17:45;10.50;99.90
63313;DHT22;49442;45.640;13.812;2023-01-09T04:20:11;10.50;99.90
63313;DHT22;49442;45.640;13.812;2023-01-09T04:22:37;10.60;99.90
63313;DHT22;49442;45.640;13.812;2023-01-09T04:25:03;10.60;99.90
63313;DHT22;49442;45.640;13.812;2023-01-09T04:27:28;10.60;99.90
63313;DHT22;49442;45.640;13.812;2023-01-09T04:29:54;10.70;99.90
63313;DHT22;49442;45.640;13.812;2023-01-09T04:32:20;10.80;99.90
63313;DHT22;49442;45.640;13.812;2023-01-09T04:34:46;10.90;99.90
63313;DHT22;49442;45.640;13.812;2023-01-09T04:37:11;10.90;99.90
63313;DHT22;49442;45.640;13.812;2023-01-09T04:39:37;10.90;99.90
63313;DHT22;49442;45.640;13.812;2023-01-09T04:42:04;10.90;99.90
63313;DHT22;49442;45.640;13.812;2023-01-09T04:44:30;11.00;99.90
63313;DHT22;49442;45.640;13.812;2023-01-09T04:46:56;11.00;99.90
63313;DHT22;49442;45.640;13.812;2023-01-09T04:49:23;11.00;99.90
63313;DHT22;49442;45.640;13.812;2023-01-09T04:51:49;11.00;99.90
63313;DHT22;49442;45.640;13.812;2023-01-09T04:54:15;11.00;99.90
63313;DHT22;49442;45.640;13.812;2023-01-09T04:56:41;11.00;99.90
63313;DHT22;49442;45.640;13.812;2023-01-09T04:59:07;11.10;99.90
63313;DHT22;49442;45.640;13.812;2023-01-09T05:01:33;11.20;99.90
63313;DHT22;49442;45.640;13.812;2023-01-09T05:03:59;11.20;99.90
63313;DHT22;49442;45.640;13.812;2023-01-09T05:06:25;11.20;99.90
63313;DHT22;49442;45.640;13.812;2023-01-09T05:08:51;11.20;99.90
63313;DHT22;49442;45.640;13.812;2023-01-09T05:11:17;11.30;99.90
63313;DHT22;49442;45.640;13.812;2023-01-09T05:13:42;11.30;99.90
63313;DHT22;49442;45.640;13.812;2023-01-09T05:16:08;11.40;99.90
63313;DHT22;49442;45.640;13.812;2023-01-09T05:18:34;11.40;99.90
63313;DHT22;49442;45.640;13.812;2023-01-09T05:21:00;11.40;99.90
63313;DHT22;49442;45.640;13.812;2023-01-09T05:23:25;11.30;99.90
63313;DHT22;49442;45.640;13.812;2023-01-09T05:25:51;11.30;99.90
63313;DHT22;49442;45.640;13.812;2023-01-09T05:28:17;11.20;99.90
63313;DHT22;49442;45.640;13.812;2023-01-09T05:30:42;11.20;99.90
63313;DHT22;49442;45.640;13.812;2023-01-09T05:33:08;11.10;99.90
63313;DHT22;49442;45.640;13.812;2023-01-09T05:35:33;11.10;99.90
63313;DHT22;49442;45.640;13.812;2023-01-09T05:37:59;11.00;99.90
63313;DHT22;49442;45.640;13.812;2023-01-09T05:40:25;11.00;99.90
63313;DHT22;49442;45.640;13.812;2023-01-09T05:42:51;11.10;99.90
63313;DHT22;49442;45.640;13.812;2023-01-09T05:45:16;11.10;99.90
63313;DHT22;49442;45.640;13.812;2023-01-09T05:47:45;11.10;99.90
63313;DHT22;49442;45.640;13.812;2023-01-09T05:50:11;11.00;99.90
63313;DHT22;49442;45.640;13.812;2023-01-09T05:52:37;11.00;99.90
63313;DHT22;49442;45.640;13.812;2023-01-09T05:55:04;11.00;99.90
63313;DHT22;49442;45.640;13.812;2023-01-09T05:57:30;11.00;99.90
63313;DHT22;49442;45.640;13.812;2023-01-09T05:59:56;11.00;99.90
63313;DHT22;49442;45.640;13.812;2023-01-09T06:02:22;11.00;99.90
63313;DHT22;49442;45.640;13.812;2023-01-09T06:04:47;11.10;99.90
63313;DHT22;49442;45.640;13.812;2023-01-09T06:07:13;11.00;99.90
63313;DHT22;49442;45.640;13.812;2023-01-09T06:09:39;11.00;99.90
63313;DHT22;49442;45.640;13.812;2023-01-09T06:12:05;11.10;99.90
63313;DHT22;49442;45.640;13.812;2023-01-09T06:14:31;11.00;99.90
63313;DHT22;49442;45.640;13.812;2023-01-09T06:16:56;11.10;99.90
63313;DHT22;49442;45.640;13.812;2023-01-09T06:19:22;11.10;99.90
63313;DHT22;49442;45.640;13.812;2023-01-09T06:21:47;11.00;99.90
63313;DHT22;49442;45.640;13.812;2023-01-09T06:24:13;11.00;99.90
63313;DHT22;49442;45.640;13.812;2023-01-09T06:26:39;11.00;99.90
63313;DHT22;49442;45.640;13.812;2023-01-09T06:29:05;11.10;99.90
63313;DHT22;49442;45.640;13.812;2023-01-09T06:31:32;11.10;99.90
63313;DHT22;49442;45.640;13.812;2023-01-09T06:33:58;11.10;99.90
63313;DHT22;49442;45.640;13.812;2023-01-09T06:36:23;11.20;99.90
63313;DHT22;49442;45.640;13.812;2023-01-09T06:38:49;11.30;99.90
63313;DHT22;49442;45.640;13.812;2023-01-09T06:41:15;11.30;99.90
63313;DHT22;49442;45.640;13.812;2023-01-09T06:43:41;11.30;99.90
63313;DHT22;49442;45.640;13.812;2023-01-09T06:46:06;11.30;99.90
63313;DHT22;49442;45.640;13.812;2023-01-09T06:48:38;11.30;99.90
63313;DHT22;49442;45.640;13.812;2023-01-09T06:51:04;11.20;99.90
63313;DHT22;49442;45.640;13.812;2023-01-09T06:53:30;11.30;99.90
63313;DHT22;49442;45.640;13.812;2023-01-09T06:55:56;11.30;99.90
63313;DHT22;49442;45.640;13.812;2023-01-09T06:58:21;11.30;99.90
63313;DHT22;49442;45.640;13.812;2023-01-09T07:00:47;11.30;99.90
63313;DHT22;49442;45.640;13.812;2023-01-09T07:03:14;11.30;99.90
63313;DHT22;49442;45.640;13.812;2023-01-09T07:05:47;11.40;99.90
63313;DHT22;49442;45.640;13.812;2023-01-09T07:08:13;11.40;99.90
63313;DHT22;49442;45.640;13.812;2023-01-09T07:10:41;11.40;99.90
63313;DHT22;49442;45.640;13.812;2023-01-09T07:13:07;11.40;99.90
63313;DHT22;49442;45.640;13.812;2023-01-09T07:15:33;11.50;99.90
63313;DHT22;49442;45.640;13.812;2023-01-09T07:17:59;11.50;99.90
63313;DHT22;49442;45.640;13.812;2023-01-09T07:20:24;11.50;99.90
63313;DHT22;49442;45.640;13.812;2023-01-09T07:22:50;11.50;99.90
63313;DHT22;49442;45.640;13.812;2023-01-09T07:25:16;11.50;99.90
63313;DHT22;49442;45.640;13.812;2023-01-09T07:27:41;11.60;99.90
63313;DHT22;49442;45.640;13.812;2023-01-09T07:30:08;11.50;99.90
63313;DHT22;49442;45.640;13.812;2023-01-09T07:32:34;11.50;99.90
63313;DHT22;49442;45.640;13.812;2023-01-09T07:35:00;11.60;99.90
63313;DHT22;49442;45.640;13.812;2023-01-09T07:37:25;11.60;99.90
63313;DHT22;49442;45.640;13.812;2023-01-09T07:39:51;11.60;99.90
63313;DHT22;49442;45.640;13.812;2023-01-09T07:42:16;11.60;99.90
63313;DHT22;49442;45.640;13.812;2023-01-09T07:44:42;11.60;99.90
63313;DHT22;49442;45.640;13.812;2023-01-09T07:47:08;11.60;99.90
63313;DHT22;49442;45.640;13.812;2023-01-09T07:49:34;11.70;99.90
63313;DHT22;49442;45.640;13.812;2023-01-09T07:51:59;11.70;99.90
63313;DHT22;49442;45.640;13.812;2023-01-09T07:54:25;11.70;99.90
63313;DHT22;49442;45.640;13.812;2023-01-09T07:56:51;11.80;99.90
63313;DHT22;49442;45.640;13.812;2023-01-09T07:59:17;11.80;99.90
63313;DHT22;49442;45.640;13.812;2023-01-09T08:01:42;11.80;99.90
63313;DHT22;49442;45.640;13.812;2023-01-09T08:04:08;11.80;99.90
63313;DHT22;49442;45.640;13.812;2023-01-09T08:06:34;11.70;99.90
63313;DHT22;49442;45.640;13.812;2023-01-09T08:09:00;11.80;99.90
63313;DHT22;49442;45.640;13.812;2023-01-09T08:11:26;11.80;99.90
63313;DHT22;49442;45.640;13.812;2023-01-09T08:13:51;11.80;99.90
63313;DHT22;49442;45.640;13.812;2023-01-09T08:16:17;11.80;99.90
63313;DHT22;49442;45.640;13.812;2023-01-09T08:18:43;11.80;99.90
63313;DHT22;49442;45.640;13.812;2023-01-09T08:21:09;11.80;99.90
63313;DHT22;49442;45.640;13.812;2023-01-09T08:23:36;11.90;99.90
63313;DHT22;49442;45.640;13.812;2023-01-09T08:26:02;11.90;99.90
63313;DHT22;49442;45.640;13.812;2023-01-09T08:28:28;11.90;99.90
63313;DHT22;49442;45.640;13.812;2023-01-09T08:30:54;11.90;99.90
63313;DHT22;49442;45.640;13.812;2023-01-09T08:33:20;12.00;99.90
63313;DHT22;49442;45.640;13.812;2023-01-09T08:35:45;12.00;99.90
63313;DHT22;49442;45.640;13.812;2023-01-09T08:38:11;12.00;99.90
63313;DHT22;49442;45.640;13.812;2023-01-09T08:40:37;12.00;99.90
63313;DHT22;49442;45.640;13.812;2023-01-09T08:43:02;12.10;99.90
63313;DHT22;49442;45.640;13.812;2023-01-09T08:45:47;12.10;99.90
63313;DHT22;49442;45.640;13.812;2023-01-09T08:48:31;12.10;99.90
63313;DHT22;49442;45.640;13.812;2023-01-09T08:50:57;12.20;99.90
63313;DHT22;49442;45.640;13.812;2023-01-09T08:53:22;12.20;99.90
63313;DHT22;49442;45.640;13.812;2023-01-09T08:55:48;12.20;99.90
63313;DHT22;49442;45.640;13.812;2023-01-09T08:58:14;12.20;99.90
63313;DHT22;49442;45.640;13.812;2023-01-09T09:00:39;12.20;99.90
63313;DHT22;49442;45.640;13.812;2023-01-09T09:03:05;12.20;99.90
63313;DHT22;49442;45.640;13.812;2023-01-09T09:05:31;12.30;99.90
63313;DHT22;49442;45.640;13.812;2023-01-09T09:07:58;12.30;99.90
63313;DHT22;49442;45.640;13.812;2023-01-09T09:10:26;12.40;99.90
63313;DHT22;49442;45.640;13.812;2023-01-09T09:12:53;12.40;99.90
63313;DHT22;49442;45.640;13.812;2023-01-09T09:15:20;12.40;99.90
63313;DHT22;49442;45.640;13.812;2023-01-09T09:18:03;12.50;99.90
63313;DHT22;49442;45.640;13.812;2023-01-09T09:20:32;12.50;99.90
63313;DHT22;49442;45.640;13.812;2023-01-09T09:22:58;12.60;99.90
63313;DHT22;49442;45.640;13.812;2023-01-09T09:25:24;12.50;99.90
63313;DHT22;49442;45.640;13.812;2023-01-09T09:27:50;12.50;99.90
63313;DHT22;49442;45.640;13.812;2023-01-09T09:30:17;12.50;99.90
63313;DHT22;49442;45.640;13.812;2023-01-09T09:32:44;12.50;99.90
63313;DHT22;49442;45.640;13.812;2023-01-09T09:35:10;12.50;99.90
63313;DHT22;49442;45.640;13.812;2023-01-09T09:37:36;12.50;99.90
63313;DHT22;49442;45.640;13.812;2023-01-09T09:40:03;12.50;99.90
63313;DHT22;49442;45.640;13.812;2023-01-09T09:45:55;12.60;99.90
63313;DHT22;49442;45.640;13.812;2023-01-09T09:48:47;12.50;99.90
63313;DHT22;49442;45.640;13.812;2023-01-09T09:56:50;12.50;99.90
63313;DHT22;49442;45.640;13.812;2023-01-09T09:59:22;12.50;99.90
63313;DHT22;49442;45.640;13.812;2023-01-09T10:01:58;12.50;99.90
63313;DHT22;49442;45.640;13.812;2023-01-09T10:04:27;12.50;99.90
63313;DHT22;49442;45.640;13.812;2023-01-09T10:07:03;12.50;99.90
63313;DHT22;49442;45.640;13.812;2023-01-09T10:09:53;12.50;99.90
63313;DHT22;49442;45.640;13.812;2023-01-09T10:12:38;12.50;99.90
63313;DHT22;49442;45.640;13.812;2023-01-09T10:15:14;12.50;99.90
63313;DHT22;49442;45.640;13.812;2023-01-09T10:20:52;12.60;99.90
63313;DHT22;49442;45.640;13.812;2023-01-09T10:23:46;12.60;99.90
63313;DHT22;49442;45.640;13.812;2023-01-09T10:26:51;12.70;99.90
63313;DHT22;49442;45.640;13.812;2023-01-09T10:32:07;12.70;99.90
63313;DHT22;49442;45.640;13.812;2023-01-09T10:37:30;12.80;99.90
63313;DHT22;49442;45.640;13.812;2023-01-09T10:43:28;12.90;99.90
63313;DHT22;49442;45.640;13.812;2023-01-09T10:45:47;12.90;99.90
63313;DHT22;49442;45.640;13.812;2023-01-09T10:50:56;12.80;99.90
63313;DHT22;49442;45.640;13.812;2023-01-09T10:53:33;12.80;99.90
63313;DHT22;49442;45.640;13.812;2023-01-09T10:56:23;12.80;99.90
63313;DHT22;49442;45.640;13.812;2023-01-09T10:58:51;12.80;99.90
63313;DHT22;49442;45.640;13.812;2023-01-09T11:03:51;12.80;99.90
63313;DHT22;49442;45.640;13.812;2023-01-09T11:06:23;12.80;99.90
63313;DHT22;49442;45.640;13.812;2023-01-09T11:08:53;12.90;99.90
63313;DHT22;49442;45.640;13.812;2023-01-09T11:11:36;12.90;99.90
63313;DHT22;49442;45.640;13.812;2023-01-09T11:17:02;13.10;99.90
63313;DHT22;49442;45.640;13.812;2023-01-09T11:19:29;13.20;99.90
63313;DHT22;49442;45.640;13.812;2023-01-09T11:22:15;13.30;99.90
63313;DHT22;49442;45.640;13.812;2023-01-09T11:24:41;13.40;99.90
63313;DHT22;49442;45.640;13.812;2023-01-09T11:27:17;13.40;99.90
63313;DHT22;49442;45.640;13.812;2023-01-09T11:32:34;13.40;99.90
63313;DHT22;49442;45.640;13.812;2023-01-09T11:35:03;13.40;99.90
63313;DHT22;49442;45.640;13.812;2023-01-09T11:37:29;13.40;99.90
63313;DHT22;49442;45.640;13.812;2023-01-09T11:39:57;13.40;99.90
63313;DHT22;49442;45.640;13.812;2023-01-09T11:42:26;13.40;99.90
63313;DHT22;49442;45.640;13.812;2023-01-09T11:45:27;13.40;99.90
63313;DHT22;49442;45.640;13.812;2023-01-09T11:47:54;13.40;99.90
63313;DHT22;49442;45.640;13.812;2023-01-09T11:50:26;13.30;99.90
63313;DHT22;49442;45.640;13.812;2023-01-09T11:53:14;13.30;99.90
63313;DHT22;49442;45.640;13.812;2023-01-09T11:55:41;13.20;99.90
63313;DHT22;49442;45.640;13.812;2023-01-09T11:58:15;13.00;99.90
63313;DHT22;49442;45.640;13.812;2023-01-09T12:05:58;13.00;99.90
63313;DHT22;49442;45.640;13.812;2023-01-09T12:09:07;13.00;99.90
63313;DHT22;49442;45.640;13.812;2023-01-09T12:17:02;13.10;99.90
63313;DHT22;49442;45.640;13.812;2023-01-09T12:22:36;13.10;99.90
63313;DHT22;49442;45.640;13.812;2023-01-09T12:31:00;12.90;99.90
63313;DHT22;49442;45.640;13.812;2023-01-09T12:33:41;12.80;99.90
63313;DHT22;49442;45.640;13.812;2023-01-09T12:36:21;12.70;99.90
63313;DHT22;49442;45.640;13.812;2023-01-09T12:47:40;12.40;99.90
63313;DHT22;49442;45.640;13.812;2023-01-09T12:52:48;12.30;99.90
63313;DHT22;49442;45.640;13.812;2023-01-09T12:55:22;12.20;99.90
63313;DHT22;49442;45.640;13.812;2023-01-09T12:57:54;12.20;99.90
63313;DHT22;49442;45.640;13.812;2023-01-09T13:00:36;12.20;99.90
63313;DHT22;49442;45.640;13.812;2023-01-09T13:03:27;12.30;99.90
63313;DHT22;49442;45.640;13.812;2023-01-09T13:05:56;12.30;99.90
63313;DHT22;49442;45.640;13.812;2023-01-09T13:11:37;12.30;99.90
63313;DHT22;49442;45.640;13.812;2023-01-09T13:16:48;12.20;99.90
63313;DHT22;49442;45.640;13.812;2023-01-09T13:19:47;12.20;99.90
63313;DHT22;49442;45.640;13.812;2023-01-09T13:22:13;12.10;99.90
63313;DHT22;49442;45.640;13.812;2023-01-09T13:27:18;12.10;99.90
63313;DHT22;49442;45.640;13.812;2023-01-09T13:30:31;12.10;99.90
63313;DHT22;49442;45.640;13.812;2023-01-09T13:35:12;12.10;99.90
63313;DHT22;49442;45.640;13.812;2023-01-09T13:37:39;12.10;99.90
63313;DHT22;49442;45.640;13.812;2023-01-09T13:40:25;12.10;99.90
63313;DHT22;49442;45.640;13.812;2023-01-09T13:45:27;12.10;99.90
63313;DHT22;49442;45.640;13.812;2023-01-09T13:50:40;12.10;99.90
63313;DHT22;49442;45.640;13.812;2023-01-09T14:00:50;12.10;99.90
63313;DHT22;49442;45.640;13.812;2023-01-09T14:08:21;12.10;99.90
63313;DHT22;49442;45.640;13.812;2023-01-09T14:10:50;12.10;99.90
63313;DHT22;49442;45.640;13.812;2023-01-09T14:13:17;12.10;99.90
63313;DHT22;49442;45.640;13.812;2023-01-09T14:15:45;12.10;99.90
63313;DHT22;49442;45.640;13.812;2023-01-09T14:18:23;12.10;99.90
63313;DHT22;49442;45.640;13.812;2023-01-09T14:21:06;12.20;99.90
63313;DHT22;49442;45.640;13.812;2023-01-09T14:23:36;12.20;99.90
63313;DHT22;49442;45.640;13.812;2023-01-09T14:26:03;12.20;99.90
63313;DHT22;49442;45.640;13.812;2023-01-09T14:28:31;12.10;99.90
63313;DHT22;49442;45.640;13.812;2023-01-09T14:38:48;12.10;99.90
63313;DHT22;49442;45.640;13.812;2023-01-09T14:41:35;12.10;99.90
63313;DHT22;49442;45.640;13.812;2023-01-09T14:46:52;12.10;99.90
63313;DHT22;49442;45.640;13.812;2023-01-09T14:51:48;12.10;99.90
63313;DHT22;49442;45.640;13.812;2023-01-09T14:54:26;12.10;99.90
63313;DHT22;49442;45.640;13.812;2023-01-09T14:56:52;12.10;99.90
63313;DHT22;49442;45.640;13.812;2023-01-09T14:59:19;12.00;99.90
63313;DHT22;49442;45.640;13.812;2023-01-09T15:01:47;12.10;99.90
63313;DHT22;49442;45.640;13.812;2023-01-09T15:04:31;12.00;99.90
63313;DHT22;49442;45.640;13.812;2023-01-09T15:07:00;12.00;99.90
63313;DHT22;49442;45.640;13.812;2023-01-09T15:09:40;12.00;99.90
63313;DHT22;49442;45.640;13.812;2023-01-09T15:12:08;11.90;99.90
63313;DHT22;49442;45.640;13.812;2023-01-09T15:14:42;11.90;99.90
63313;DHT22;49442;45.640;13.812;2023-01-09T15:17:19;11.90;99.90
63313;DHT22;49442;45.640;13.812;2023-01-09T15:19:47;11.90;99.90
63313;DHT22;49442;45.640;13.812;2023-01-09T15:22:22;11.90;99.90
63313;DHT22;49442;45.640;13.812;2023-01-09T15:24:48;11.80;99.90
63313;DHT22;49442;45.640;13.812;2023-01-09T15:27:15;11.80;99.90
63313;DHT22;49442;45.640;13.812;2023-01-09T15:29:43;11.80;99.90
63313;DHT22;49442;45.640;13.812;2023-01-09T15:34:45;11.70;99.90
63313;DHT22;49442;45.640;13.812;2023-01-09T15:37:33;11.70;99.90
63313;DHT22;49442;45.640;13.812;2023-01-09T15:40:02;11.60;99.90
63313;DHT22;49442;45.640;13.812;2023-01-09T15:42:35;11.60;99.90
63313;DHT22;49442;45.640;13.812;2023-01-09T15:45:38;11.50;99.90
63313;DHT22;49442;45.640;13.812;2023-01-09T15:48:21;11.50;99.90
63313;DHT22;49442;45.640;13.812;2023-01-09T15:51:01;11.50;99.90
63313;DHT22;49442;45.640;13.812;2023-01-09T15:53:28;11.40;99.90
63313;DHT22;49442;45.640;13.812;2023-01-09T15:58:40;11.30;99.90
63313;DHT22;49442;45.640;13.812;2023-01-09T16:01:27;11.30;99.90
63313;DHT22;49442;45.640;13.812;2023-01-09T16:04:05;11.30;99.90
63313;DHT22;49442;45.640;13.812;2023-01-09T16:06:52;11.20;99.90
63313;DHT22;49442;45.640;13.812;2023-01-09T16:11:54;11.20;99.90
63313;DHT22;49442;45.640;13.812;2023-01-09T16:14:32;11.10;99.90
63313;DHT22;49442;45.640;13.812;2023-01-09T16:17:01;11.00;99.90
63313;DHT22;49442;45.640;13.812;2023-01-09T16:19:47;10.90;99.90
63313;DHT22;49442;45.640;13.812;2023-01-09T16:22:29;10.90;99.90
63313;DHT22;49442;45.640;13.812;2023-01-09T16:24:58;10.90;99.90
63313;DHT22;49442;45.640;13.812;2023-01-09T16:29:55;10.90;99.90
63313;DHT22;49442;45.640;13.812;2023-01-09T16:32:33;10.90;99.90
63313;DHT22;49442;45.640;13.812;2023-01-09T16:35:01;10.70;99.90
63313;DHT22;49442;45.640;13.812;2023-01-09T16:37:27;10.30;99.90
63313;DHT22;49442;45.640;13.812;2023-01-09T16:42:59;9.50;99.90
63313;DHT22;49442;45.640;13.812;2023-01-09T16:45:39;9.20;99.90
63313;DHT22;49442;45.640;13.812;2023-01-09T16:48:14;8.90;99.90
63313;DHT22;49442;45.640;13.812;2023-01-09T16:50:41;8.70;99.90
63313;DHT22;49442;45.640;13.812;2023-01-09T16:53:20;8.60;99.90
63313;DHT22;49442;45.640;13.812;2023-01-09T16:55:54;8.50;99.90
63313;DHT22;49442;45.640;13.812;2023-01-09T16:58:29;8.40;99.90
63313;DHT22;49442;45.640;13.812;2023-01-09T17:00:56;8.30;99.90
63313;DHT22;49442;45.640;13.812;2023-01-09T17:03:22;8.20;99.90
63313;DHT22;49442;45.640;13.812;2023-01-09T17:05:51;8.10;99.90
63313;DHT22;49442;45.640;13.812;2023-01-09T17:08:23;8.00;99.90
63313;DHT22;49442;45.640;13.812;2023-01-09T17:10:53;7.90;99.90
63313;DHT22;49442;45.640;13.812;2023-01-09T17:13:19;7.90;99.90
63313;DHT22;49442;45.640;13.812;2023-01-09T17:15:45;7.90;99.90
63313;DHT22;49442;45.640;13.812;2023-01-09T17:18:16;7.80;99.90
63313;DHT22;49442;45.640;13.812;2023-01-09T17:20:43;7.70;99.90
63313;DHT22;49442;45.640;13.812;2023-01-09T17:23:09;7.70;99.90
63313;DHT22;49442;45.640;13.812;2023-01-09T17:25:35;7.50;99.90
63313;DHT22;49442;45.640;13.812;2023-01-09T17:28:19;7.40;99.90
63313;DHT22;49442;45.640;13.812;2023-01-09T17:31:05;7.30;99.90
63313;DHT22;49442;45.640;13.812;2023-01-09T17:33:33;7.30;99.90
63313;DHT22;49442;45.640;13.812;2023-01-09T17:36:06;7.30;99.90
63313;DHT22;49442;45.640;13.812;2023-01-09T17:38:35;7.30;99.90
63313;DHT22;49442;45.640;13.812;2023-01-09T17:41:01;7.20;99.90
63313;DHT22;49442;45.640;13.812;2023-01-09T17:43:26;7.20;99.90
63313;DHT22;49442;45.640;13.812;2023-01-09T17:45:52;7.30;99.90
63313;DHT22;49442;45.640;13.812;2023-01-09T17:48:21;7.20;99.90
63313;DHT22;49442;45.640;13.812;2023-01-09T17:50:47;7.20;99.90
63313;DHT22;49442;45.640;13.812;2023-01-09T17:53:14;7.20;99.90
63313;DHT22;49442;45.640;13.812;2023-01-09T17:55:40;7.20;99.90
63313;DHT22;49442;45.640;13.812;2023-01-09T17:58:07;7.10;99.90
63313;DHT22;49442;45.640;13.812;2023-01-09T18:00:34;7.10;99.90
63313;DHT22;49442;45.640;13.812;2023-01-09T18:03:02;7.10;99.90
63313;DHT22;49442;45.640;13.812;2023-01-09T18:05:28;7.10;99.90